Time;durP1;ratioP1;P1;durP2;ratioP2;P2;SDS_P1;SDS_P2;PMS_P1;PMS_P2;Temp;Humidity;BMP_temperature;BMP_pressure;BME280_temperature;BME280_humidity;BME280_pressure;Samples;Min_cycle;Max_cycle;Signal;HPM_P1;HPM_P2
2022/04/15 00:01:21;;;;;;;17.27;10.65;;;7.60;99.90;;;;;;5050400;28;20041;-50
2022/04/15 00:03:47;;;;;;;20.70;10.70;;;7.50;99.90;;;;;;5033842;28;20047;-51
2022/04/15 00:06:12;;;;;;;18.15;9.88;;;7.50;99.90;;;;;;5053363;28;20118;-51
2022/04/15 00:08:38;;;;;;;16.60;7.90;;;7.40;99.90;;;;;;5050677;28;20072;-47
2022/04/15 00:11:04;;;;;;;12.75;8.77;;;7.40;99.90;;;;;;5053303;28;20041;-49
2022/04/15 00:13:31;;;;;;;10.63;6.80;;;7.30;99.90;;;;;;5034253;28;20571;-48
2022/04/15 00:15:58;;;;;;;14.10;7.60;;;7.20;99.90;;;;;;5034988;28;20040;-51
2022/04/15 00:18:25;;;;;;;10.75;7.30;;;7.20;99.90;;;;;;5052896;28;20041;-48
2022/04/15 00:20:53;;;;;;;10.02;6.80;;;7.10;99.90;;;;;;5050970;28;20041;-48
2022/04/15 00:23:22;;;;;;;13.38;7.10;;;7.00;99.90;;;;;;5052305;28;20052;-50
2022/04/15 00:25:52;;;;;;;14.65;7.97;;;7.00;99.90;;;;;;5051147;28;20119;-50
2022/04/15 00:28:18;;;;;;;13.63;7.95;;;6.90;99.90;;;;;;5051580;28;20492;-49
2022/04/15 00:30:43;;;;;;;10.55;8.13;;;6.80;99.90;;;;;;5047667;28;20112;-49
2022/04/15 00:33:09;;;;;;;11.98;7.32;;;6.80;99.90;;;;;;5034426;28;20532;-54
2022/04/15 00:35:35;;;;;;;12.38;7.63;;;6.70;99.90;;;;;;5051353;28;20048;-48
2022/04/15 00:38:01;;;;;;;12.60;8.07;;;6.60;99.90;;;;;;5043257;28;20128;-48
2022/04/15 00:40:26;;;;;;;13.02;7.93;;;6.60;99.90;;;;;;5052371;28;20048;-53
2022/04/15 00:42:52;;;;;;;11.77;7.97;;;6.60;99.90;;;;;;5052117;28;20455;-53
2022/04/15 00:45:18;;;;;;;43.67;8.40;;;6.50;99.90;;;;;;5052566;28;20091;-50
2022/04/15 00:47:55;;;;;;;13.20;7.47;;;6.50;99.90;;;;;;5051856;28;20033;-50
2022/04/15 00:50:24;;;;;;;16.52;9.75;;;6.40;99.90;;;;;;5051100;28;20068;-52
2022/04/15 00:52:52;;;;;;;13.20;9.73;;;6.30;99.90;;;;;;5025288;28;20377;-50
2022/04/15 00:55:19;;;;;;;16.33;10.63;;;6.20;99.90;;;;;;5050338;28;20048;-53
2022/04/15 00:57:55;;;;;;;27.13;9.27;;;6.20;99.90;;;;;;5034001;28;20120;-52
2022/04/15 01:00:22;;;;;;;54.92;6.85;;;6.20;99.90;;;;;;5052734;28;20047;-52
2022/04/15 01:02:48;;;;;;;24.85;5.82;;;6.10;99.90;;;;;;5051722;28;20063;-52
2022/04/15 01:05:14;;;;;;;34.28;6.25;;;6.00;99.90;;;;;;5047897;28;20041;-51
2022/04/15 01:07:42;;;;;;;93.07;7.93;;;5.90;99.90;;;;;;5043292;28;20515;-50
2022/04/15 01:10:11;;;;;;;54.17;6.63;;;5.90;99.90;;;;;;5049409;28;20500;-51
2022/04/15 01:12:38;;;;;;;57.90;6.57;;;5.80;99.90;;;;;;5048495;28;20513;-51
2022/04/15 01:15:09;;;;;;;51.13;7.65;;;5.70;99.90;;;;;;5050654;28;20044;-51
2022/04/15 01:17:35;;;;;;;20.45;6.10;;;5.60;99.90;;;;;;5030861;28;20063;-51
2022/04/15 01:20:03;;;;;;;10.38;6.68;;;5.60;99.90;;;;;;5037981;28;20041;-53
2022/04/15 01:22:33;;;;;;;20.42;8.05;;;5.60;99.90;;;;;;5051837;28;20447;-51
2022/04/15 01:24:58;;;;;;;18.10;7.57;;;5.50;99.90;;;;;;5051788;28;20041;-53
2022/04/15 01:27:31;;;;;;;13.75;5.53;;;5.50;99.90;;;;;;5048757;28;20559;-53
2022/04/15 01:29:57;;;;;;;8.35;4.93;;;5.50;99.90;;;;;;5051472;28;20370;-55
2022/04/15 01:32:22;;;;;;;9.45;5.10;;;5.50;99.90;;;;;;5051162;28;20037;-55
2022/04/15 01:34:48;;;;;;;19.13;5.15;;;5.40;99.90;;;;;;5049569;28;20047;-55
2022/04/15 01:37:17;;;;;;;16.88;4.97;;;5.40;99.90;;;;;;5031527;28;20041;-54
2022/04/15 01:39:43;;;;;;;13.13;5.05;;;5.40;99.90;;;;;;5051415;28;20438;-55
2022/04/15 01:42:16;;;;;;;11.82;5.38;;;5.20;99.90;;;;;;5049625;28;20033;-55
2022/04/15 01:44:42;;;;;;;;;;;5.30;99.90;;;;;;5048461;28;20497;-54
2022/04/15 01:47:10;;;;;;;10.38;5.30;;;5.30;99.90;;;;;;5051033;28;20019;-52
2022/04/15 01:49:35;;;;;;;11.70;5.93;;;5.30;99.90;;;;;;5049399;28;20047;-55
2022/04/15 01:52:01;;;;;;;11.20;4.63;;;5.20;99.90;;;;;;5047358;28;20433;-55
2022/04/15 01:54:29;;;;;;;11.77;4.95;;;5.20;99.90;;;;;;5051540;28;20425;-55
2022/04/15 01:56:56;;;;;;;12.80;5.30;;;5.20;99.90;;;;;;5049845;28;20421;-55
2022/04/15 01:59:22;;;;;;;10.50;5.80;;;5.10;99.90;;;;;;5051315;28;20033;-53
2022/04/15 02:01:48;;;;;;;18.30;7.13;;;5.10;99.90;;;;;;5040926;28;20044;-52
2022/04/15 02:04:14;;;;;;;11.25;6.95;;;5.20;99.90;;;;;;5036923;28;20042;-52
2022/04/15 02:06:39;;;;;;;9.48;6.75;;;5.30;99.90;;;;;;5034292;28;20037;-54
2022/04/15 02:09:05;;;;;;;48.95;8.60;;;5.30;99.90;;;;;;5050030;28;20458;-55
2022/04/15 02:11:30;;;;;;;26.73;7.80;;;5.40;99.90;;;;;;5033095;28;20047;-53
2022/04/15 02:13:56;;;;;;;18.77;6.85;;;5.40;99.90;;;;;;5050100;28;20033;-55
2022/04/15 02:16:21;;;;;;;11.68;6.05;;;5.50;99.90;;;;;;5048632;28;20047;-55
2022/04/15 02:18:47;;;;;;;7.45;5.82;;;5.50;99.90;;;;;;5048828;28;20041;-55
2022/04/15 02:21:12;;;;;;;9.85;6.43;;;5.60;99.90;;;;;;5037169;28;20037;-51
2022/04/15 02:23:38;;;;;;;11.10;6.20;;;5.60;99.90;;;;;;5053317;28;20033;-54
2022/04/15 02:26:03;;;;;;;7.95;5.88;;;5.60;99.90;;;;;;5054230;28;20366;-55
2022/04/15 02:28:29;;;;;;;6.72;5.30;;;5.60;99.90;;;;;;5054533;28;20377;-50
2022/04/15 02:30:54;;;;;;;8.73;5.53;;;5.60;99.90;;;;;;5053755;28;20041;-55
2022/04/15 02:33:20;;;;;;;8.93;5.68;;;5.60;99.90;;;;;;5055000;28;20247;-55
2022/04/15 02:35:46;;;;;;;11.25;7.20;;;5.60;99.90;;;;;;5053968;28;20040;-55
2022/04/15 02:38:11;;;;;;;9.90;7.18;;;5.60;99.90;;;;;;5036526;28;20044;-55
2022/04/15 02:40:37;;;;;;;13.40;7.35;;;5.70;99.90;;;;;;5054681;28;20119;-51
2022/04/15 02:43:03;;;;;;;10.75;7.13;;;5.70;99.90;;;;;;5054089;28;20559;-55
2022/04/15 02:45:29;;;;;;;11.52;7.30;;;5.80;99.90;;;;;;5053715;28;20033;-55
2022/04/15 02:47:56;;;;;;;16.52;8.27;;;5.80;99.90;;;;;;5054160;28;20045;-53
2022/04/15 02:50:22;;;;;;;14.48;8.25;;;5.90;99.90;;;;;;5054709;28;20095;-53
2022/04/15 02:52:48;;;;;;;13.85;7.90;;;5.90;99.90;;;;;;5054741;28;20493;-51
2022/04/15 02:55:13;;;;;;;13.88;8.30;;;5.90;99.90;;;;;;5052646;28;20119;-49
2022/04/15 02:57:39;;;;;;;13.45;7.97;;;6.00;99.90;;;;;;5034002;28;20048;-55
2022/04/15 03:00:05;;;;;;;14.07;8.23;;;6.00;99.90;;;;;;5056985;28;20114;-55
2022/04/15 03:02:34;;;;;;;16.40;8.45;;;6.00;99.90;;;;;;5036559;28;20048;-55
2022/04/15 03:05:00;;;;;;;16.38;8.45;;;6.10;99.90;;;;;;5053790;28;20040;-51
2022/04/15 03:07:26;;;;;;;19.35;8.68;;;6.20;99.90;;;;;;5053990;28;20116;-53
2022/04/15 03:09:52;;;;;;;17.08;9.23;;;6.20;99.90;;;;;;5053564;28;20048;-52
2022/04/15 03:12:17;;;;;;;15.55;8.98;;;6.20;99.90;;;;;;5052226;28;20041;-55
2022/04/15 03:14:43;;;;;;;17.48;9.73;;;6.30;99.90;;;;;;5054277;28;20037;-52
2022/04/15 03:17:09;;;;;;;19.58;10.25;;;6.30;99.90;;;;;;5054039;28;20045;-53
2022/04/15 03:19:35;;;;;;;16.75;10.68;;;6.40;99.90;;;;;;5053251;28;20044;-54
2022/04/15 03:22:00;;;;;;;17.23;9.68;;;6.40;99.90;;;;;;5053593;28;20055;-51
2022/04/15 03:24:26;;;;;;;16.80;9.75;;;6.50;99.90;;;;;;5053141;28;20041;-52
2022/04/15 03:26:51;;;;;;;19.35;10.07;;;6.50;99.90;;;;;;5051353;28;20048;-51
2022/04/15 03:29:17;;;;;;;13.35;9.30;;;6.60;99.90;;;;;;5053577;28;20033;-52
2022/04/15 03:31:43;;;;;;;15.82;9.60;;;6.70;99.90;;;;;;5053060;28;20443;-51
2022/04/15 03:34:08;;;;;;;17.20;10.10;;;6.70;99.90;;;;;;5053128;28;20518;-52
2022/04/15 03:36:34;;;;;;;16.67;9.55;;;6.80;99.90;;;;;;5052635;28;20612;-54
2022/04/15 03:39:00;;;;;;;17.58;10.40;;;6.80;99.90;;;;;;5050796;28;20393;-53
2022/04/15 03:41:29;;;;;;;16.20;9.82;;;6.80;99.90;;;;;;5035861;28;20079;-52
2022/04/15 03:43:54;;;;;;;20.02;10.23;;;6.80;99.90;;;;;;5053842;28;20247;-53
2022/04/15 03:46:20;;;;;;;14.10;9.68;;;6.90;99.90;;;;;;5052475;28;20049;-51
2022/04/15 03:48:45;;;;;;;17.13;9.35;;;6.90;99.90;;;;;;5053463;28;20041;-52
2022/04/15 03:51:11;;;;;;;17.35;10.15;;;6.90;99.90;;;;;;5052853;28;20041;-49
2022/04/15 03:53:37;;;;;;;17.58;10.10;;;6.90;99.90;;;;;;5050743;28;20086;-52
2022/04/15 03:56:03;;;;;;;16.15;9.75;;;6.90;99.90;;;;;;5037465;28;20040;-52
2022/04/15 03:58:29;;;;;;;17.33;10.02;;;7.00;99.90;;;;;;5053574;28;20044;-54
2022/04/15 04:00:54;;;;;;;19.55;10.20;;;7.50;99.90;;;;;;5052304;28;20253;-55
2022/04/15 04:03:20;;;;;;;14.85;9.52;;;7.00;99.90;;;;;;5053383;28;20040;-55
2022/04/15 04:05:45;;;;;;;17.05;10.02;;;7.00;99.90;;;;;;5032809;28;20051;-52
2022/04/15 04:08:11;;;;;;;16.27;9.60;;;7.00;99.90;;;;;;5050077;28;20063;-55
2022/04/15 04:10:37;;;;;;;14.57;9.98;;;7.10;99.90;;;;;;5049964;28;20033;-54
2022/04/15 04:13:03;;;;;;;14.90;9.20;;;7.10;99.90;;;;;;5053020;28;20033;-55
2022/04/15 04:15:30;;;;;;;17.30;9.48;;;7.10;99.90;;;;;;5051644;28;20428;-55
2022/04/15 04:17:56;;;;;;;17.83;9.50;;;7.10;99.90;;;;;;5049969;28;20079;-55
2022/04/15 04:20:22;;;;;;;17.20;9.95;;;7.10;99.90;;;;;;5050637;28;20045;-55
2022/04/15 04:22:48;;;;;;;16.08;9.70;;;7.20;99.90;;;;;;5052673;28;20047;-56
2022/04/15 04:25:13;;;;;;;14.30;9.70;;;7.10;99.90;;;;;;5052835;28;20041;-53
2022/04/15 04:27:42;;;;;;;16.40;9.32;;;7.10;99.90;;;;;;5052627;28;20041;-55
2022/04/15 04:30:12;;;;;;;14.88;9.68;;;7.20;99.90;;;;;;5051100;28;20079;-55
2022/04/15 04:32:38;;;;;;;15.13;9.35;;;7.20;99.90;;;;;;5052476;28;20037;-55
2022/04/15 04:35:05;;;;;;;15.85;9.90;;;7.20;99.90;;;;;;5051454;28;20409;-55
2022/04/15 04:37:31;;;;;;;17.40;9.65;;;7.20;99.90;;;;;;5034950;28;20051;-55
2022/04/15 04:39:57;;;;;;;16.30;10.35;;;7.20;99.90;;;;;;5051597;28;20037;-53
2022/04/15 04:42:23;;;;;;;18.17;10.02;;;7.20;99.90;;;;;;5051163;28;20040;-53
2022/04/15 04:44:49;;;;;;;16.20;10.05;;;7.30;99.90;;;;;;5052177;28;20048;-55
2022/04/15 04:47:16;;;;;;;17.35;10.38;;;7.30;99.90;;;;;;5051766;28;20052;-55
2022/04/15 04:49:41;;;;;;;18.95;9.82;;;7.30;99.90;;;;;;5050151;28;20037;-55
2022/04/15 04:52:07;;;;;;;18.23;10.43;;;7.30;99.90;;;;;;5049865;28;20040;-52
2022/04/15 04:54:33;;;;;;;17.35;9.90;;;7.20;99.90;;;;;;5052053;28;20041;-55
2022/04/15 04:57:00;;;;;;;17.48;9.75;;;7.30;99.90;;;;;;5051869;28;20041;-53
2022/04/15 04:59:26;;;;;;;18.20;10.23;;;7.30;99.90;;;;;;5052408;28;20048;-55
2022/04/15 05:01:52;;;;;;;17.83;9.70;;;7.30;99.90;;;;;;5047578;28;20048;-55
2022/04/15 05:04:18;;;;;;;15.82;10.02;;;7.30;99.90;;;;;;5033967;28;20041;-55
2022/04/15 05:06:43;;;;;;;18.60;9.55;;;7.30;99.90;;;;;;5051780;28;20087;-52
2022/04/15 05:09:09;;;;;;;16.00;9.52;;;7.40;99.90;;;;;;5052073;28;20505;-55
2022/04/15 05:11:34;;;;;;;18.48;9.88;;;7.40;99.90;;;;;;5051673;28;20051;-55
2022/04/15 05:14:00;;;;;;;15.15;8.55;;;7.40;99.90;;;;;;5051880;28;20037;-55
2022/04/15 05:16:26;;;;;;;16.35;9.15;;;7.40;99.90;;;;;;5042774;28;20025;-56
2022/04/15 05:18:52;;;;;;;16.30;8.75;;;7.40;99.90;;;;;;5038945;28;20045;-53
2022/04/15 05:21:17;;;;;;;13.07;9.05;;;7.40;99.90;;;;;;5039917;28;20045;-56
2022/04/15 05:23:45;;;;;;;15.98;9.35;;;7.50;99.90;;;;;;5025600;28;20044;-56
2022/04/15 05:26:11;;;;;;;15.02;9.00;;;7.50;99.90;;;;;;5021195;28;20124;-55
2022/04/15 05:28:37;;;;;;;14.88;8.52;;;7.50;99.90;;;;;;5041623;28;20124;-55
2022/04/15 05:31:05;;;;;;;16.52;9.85;;;7.50;99.90;;;;;;5044163;28;20060;-56
2022/04/15 05:33:31;;;;;;;16.77;9.35;;;7.50;99.90;;;;;;5039086;28;20553;-55
2022/04/15 05:35:57;;;;;;;18.05;9.75;;;7.50;99.90;;;;;;5037368;28;20124;-49
2022/04/15 05:38:22;;;;;;;16.20;9.73;;;7.60;99.90;;;;;;5037297;28;20041;-52
2022/04/15 05:40:48;;;;;;;16.20;9.80;;;7.60;99.90;;;;;;5037531;28;20044;-51
2022/04/15 05:43:13;;;;;;;14.18;8.90;;;7.60;99.90;;;;;;5044998;28;20577;-56
2022/04/15 05:45:39;;;;;;;16.10;9.52;;;7.60;99.90;;;;;;5036996;28;20038;-54
2022/04/15 05:48:05;;;;;;;16.83;9.63;;;7.70;99.90;;;;;;5041164;28;20044;-53
2022/04/15 05:50:30;;;;;;;15.75;9.63;;;7.70;99.90;;;;;;5043861;28;20033;-51
2022/04/15 05:52:56;;;;;;;16.58;9.73;;;7.70;99.90;;;;;;5043060;28;20119;-56
2022/04/15 05:55:21;;;;;;;17.08;9.77;;;7.70;99.90;;;;;;5047094;28;20037;-55
2022/04/15 05:57:47;;;;;;;17.65;10.30;;;7.80;99.90;;;;;;5043216;28;20044;-54
2022/04/15 06:00:13;;;;;;;17.00;10.57;;;7.80;99.90;;;;;;5021410;28;20079;-56
2022/04/15 06:02:39;;;;;;;14.32;9.27;;;7.80;99.90;;;;;;5036326;28;20112;-55
2022/04/15 06:05:05;;;;;;;15.57;10.27;;;7.80;99.90;;;;;;5040187;28;20128;-56
2022/04/15 06:07:31;;;;;;;15.23;10.18;;;7.90;99.90;;;;;;5037272;28;20068;-52
2022/04/15 06:09:58;;;;;;;16.58;10.93;;;7.90;99.90;;;;;;5038390;28;20695;-52
2022/04/15 06:15:31;;;;;;;19.27;10.00;;;8.00;99.90;;;;;;5036243;28;20460;-55
2022/04/15 06:17:57;;;;;;;14.55;9.40;;;8.10;99.90;;;;;;5043223;28;20121;-56
2022/04/15 06:20:23;;;;;;;13.82;9.32;;;8.10;99.90;;;;;;5048093;28;20515;-55
2022/04/15 06:22:49;;;;;;;13.35;8.68;;;8.20;99.90;;;;;;5052412;28;20051;-54
2022/04/15 06:25:15;;;;;;;15.38;10.20;;;8.20;99.90;;;;;;5055996;28;20041;-56
2022/04/15 06:27:40;;;;;;;11.73;8.98;;;8.20;99.90;;;;;;5041642;28;20040;-56
2022/04/15 06:30:08;;;;;;;14.60;9.00;;;8.30;99.90;;;;;;5055001;28;20040;-54
2022/04/15 06:32:34;;;;;;;14.73;9.13;;;8.30;99.90;;;;;;5055083;28;20124;-55
2022/04/15 06:34:59;;;;;;;13.45;8.18;;;8.30;99.90;;;;;;5032368;28;20056;-55
2022/04/15 06:37:25;;;;;;;10.82;8.20;;;8.40;99.90;;;;;;5050773;28;20041;-55
2022/04/15 06:39:51;;;;;;;11.88;7.63;;;8.40;99.90;;;;;;5049513;28;20044;-54
2022/04/15 06:42:28;;;;;;;11.43;7.78;;;8.30;99.90;;;;;;5011653;28;20076;-55
2022/04/15 06:44:54;;;;;;;13.20;8.00;;;8.40;99.90;;;;;;5026240;28;20045;-54
2022/04/15 06:47:20;;;;;;;9.05;6.85;;;8.40;99.90;;;;;;5036066;28;20534;-55
2022/04/15 06:49:46;;;;;;;10.25;6.88;;;8.50;99.90;;;;;;5040305;28;20406;-55
2022/04/15 06:52:13;;;;;;;10.02;6.93;;;8.50;99.90;;;;;;5034135;28;20068;-55
2022/04/15 06:54:39;;;;;;;11.45;6.72;;;8.50;99.90;;;;;;5040369;28;20079;-55
2022/04/15 06:57:05;;;;;;;11.63;6.30;;;8.50;99.90;;;;;;5042515;28;20435;-55
2022/04/15 06:59:30;;;;;;;10.30;5.72;;;8.40;99.90;;;;;;5015497;28;20033;-55
2022/04/15 07:01:59;;;;;;;8.40;5.57;;;8.40;99.90;;;;;;5033697;28;20037;-55
2022/04/15 07:04:25;;;;;;;8.15;5.65;;;8.40;99.90;;;;;;5036328;28;20073;-55
2022/04/15 07:06:51;;;;;;;7.97;5.22;;;8.30;99.90;;;;;;5044003;28;20397;-55
2022/04/15 07:09:17;;;;;;;8.55;5.40;;;8.30;99.90;;;;;;5060261;28;20048;-55
2022/04/15 07:11:42;;;;;;;8.20;5.53;;;8.40;99.90;;;;;;5053166;28;20079;-55
2022/04/15 07:14:08;;;;;;;7.90;5.22;;;8.40;99.90;;;;;;5054863;28;20488;-55
2022/04/15 07:16:36;;;;;;;8.00;5.10;;;8.40;99.90;;;;;;5053919;28;20505;-53
2022/04/15 07:19:04;;;;;;;7.57;5.05;;;8.30;99.90;;;;;;5054119;28;20045;-52
2022/04/15 07:21:34;;;;;;;8.43;4.65;;;8.20;99.90;;;;;;5054124;28;20045;-55
2022/04/15 07:24:00;;;;;;;5.80;4.18;;;8.20;99.90;;;;;;5051859;28;20051;-53
2022/04/15 07:26:25;;;;;;;7.55;4.60;;;8.30;99.90;;;;;;5042020;28;20332;-52
2022/04/15 07:28:51;;;;;;;7.50;4.88;;;8.20;99.90;;;;;;5053919;28;20401;-51
2022/04/15 07:31:16;;;;;;;7.38;4.65;;;8.10;99.90;;;;;;5054013;28;20036;-55
2022/04/15 07:33:42;;;;;;;8.38;4.45;;;8.10;99.90;;;;;;5052300;28;20029;-51
2022/04/15 07:38:51;;;;;;;7.05;4.75;;;8.10;99.90;;;;;;5053859;28;20479;-52
2022/04/15 07:41:17;;;;;;;7.18;4.50;;;8.10;99.90;;;;;;5053668;28;20044;-52
2022/04/15 07:43:42;;;;;;;8.05;4.55;;;8.00;99.90;;;;;;5053823;28;20075;-54
2022/04/15 07:46:08;;;;;;;8.38;4.35;;;8.00;99.90;;;;;;5036055;28;20036;-51
2022/04/15 07:48:34;;;;;;;8.38;4.28;;;8.00;99.90;;;;;;5052881;28;20102;-54
2022/04/15 07:50:59;;;;;;;6.57;4.82;;;8.10;99.90;;;;;;5053487;28;20041;-54
2022/04/15 07:53:25;;;;;;;8.57;5.72;;;8.10;99.90;;;;;;5053772;28;20045;-53
2022/04/15 07:55:50;;;;;;;7.03;4.65;;;8.10;99.90;;;;;;5053534;28;20064;-54
2022/04/15 07:58:18;;;;;;;7.95;4.60;;;8.00;99.90;;;;;;5053277;28;20037;-54
2022/04/15 08:00:44;;;;;;;7.05;4.55;;;8.20;99.90;;;;;;5053414;28;20044;-55
2022/04/15 08:03:09;;;;;;;7.97;4.93;;;8.10;99.90;;;;;;5051450;28;20036;-54
2022/04/15 08:05:35;;;;;;;8.20;4.40;;;8.10;99.90;;;;;;5052165;28;20048;-53
2022/04/15 08:08:00;;;;;;;10.13;5.30;;;8.10;99.90;;;;;;5053115;28;20420;-52
2022/04/15 08:10:26;;;;;;;6.90;5.03;;;8.10;99.90;;;;;;5053180;28;20037;-52
2022/04/15 08:12:52;;;;;;;11.27;5.97;;;8.10;99.90;;;;;;5053328;28;20044;-51
2022/04/15 08:15:17;;;;;;;9.05;5.70;;;8.10;99.90;;;;;;5033961;28;20032;-53
2022/04/15 08:17:43;;;;;;;10.57;5.38;;;8.00;99.90;;;;;;5051736;28;20545;-54
2022/04/15 08:20:09;;;;;;;8.63;5.45;;;8.10;99.90;;;;;;5051822;28;20040;-55
2022/04/15 08:22:35;;;;;;;9.93;6.13;;;8.10;99.90;;;;;;5035364;28;20045;-52
2022/04/15 08:25:02;;;;;;;12.43;6.82;;;8.20;99.90;;;;;;5053057;28;20087;-54
2022/04/15 08:27:28;;;;;;;11.25;6.32;;;8.20;99.90;;;;;;5052688;28;20044;-53
2022/04/15 08:29:53;;;;;;;12.85;7.35;;;8.30;99.90;;;;;;5052784;28;20063;-52
2022/04/15 08:32:20;;;;;;;9.75;6.53;;;8.40;99.90;;;;;;5052664;28;20562;-55
2022/04/15 08:34:46;;;;;;;14.15;7.80;;;8.30;99.90;;;;;;5051364;28;20069;-53
2022/04/15 08:37:13;;;;;;;14.23;8.63;;;8.30;99.90;;;;;;5052713;28;20060;-54
2022/04/15 08:39:41;;;;;;;14.57;8.48;;;8.50;99.90;;;;;;5052452;28;20045;-52
2022/04/15 08:42:08;;;;;;;12.20;7.57;;;8.40;99.90;;;;;;5052660;28;20115;-52
2022/04/15 08:44:33;;;;;;;16.45;8.85;;;8.40;99.90;;;;;;5051870;28;20123;-55
2022/04/15 08:47:02;;;;;;;13.95;8.90;;;8.40;99.90;;;;;;5046534;28;20112;-52
2022/04/15 08:49:28;;;;;;;12.98;8.50;;;8.40;99.90;;;;;;5039769;28;20505;-53
2022/04/15 08:51:55;;;;;;;17.50;8.90;;;8.40;99.90;;;;;;5043208;28;20033;-53
2022/04/15 08:54:20;;;;;;;15.35;8.75;;;8.50;99.90;;;;;;5060631;28;20041;-53
2022/04/15 08:56:46;;;;;;;13.50;8.05;;;8.50;99.90;;;;;;5052146;28;20534;-52
2022/04/15 08:59:12;;;;;;;14.27;8.68;;;8.70;99.90;;;;;;5052428;28;20048;-54
2022/04/15 09:01:37;;;;;;;14.98;9.18;;;8.70;99.90;;;;;;5052281;28;20131;-53
2022/04/15 09:04:03;;;;;;;14.57;9.23;;;8.60;99.90;;;;;;5051328;28;20048;-55
2022/04/15 09:06:31;;;;;;;15.57;9.18;;;8.70;99.90;;;;;;5042445;28;20042;-54
2022/04/15 09:09:05;;;;;;;15.38;10.13;;;8.70;99.90;;;;;;5037703;28;20125;-55
2022/04/15 09:11:33;;;;;;;20.77;9.85;;;8.60;99.90;;;;;;5036652;28;20041;-55
2022/04/15 09:14:02;;;;;;;18.23;10.82;;;8.60;99.90;;;;;;5036313;28;20056;-55
2022/04/15 09:16:29;;;;;;;18.80;10.07;;;8.60;99.90;;;;;;5039499;28;20045;-54
2022/04/15 09:18:56;;;;;;;19.40;9.90;;;8.70;99.90;;;;;;5056713;28;20119;-55
2022/04/15 09:21:24;;;;;;;17.88;10.90;;;8.80;99.90;;;;;;5046297;28;20040;-55
2022/04/15 09:23:52;;;;;;;15.52;10.43;;;8.80;99.90;;;;;;5051859;28;20041;-55
2022/04/15 09:26:18;;;;;;;17.27;10.23;;;8.80;99.90;;;;;;5051273;28;20084;-55
2022/04/15 09:28:45;;;;;;;19.65;11.50;;;8.90;99.90;;;;;;5051662;28;20043;-54
2022/04/15 09:31:15;;;;;;;15.57;10.57;;;8.90;99.90;;;;;;5051562;28;20618;-55
2022/04/15 09:33:53;;;;;;;18.38;10.57;;;8.90;99.90;;;;;;5050763;28;20036;-55
2022/04/15 09:36:24;;;;;;;19.13;9.95;;;8.90;99.90;;;;;;5051833;28;20043;-55
2022/04/15 09:38:52;;;;;;;17.73;11.02;;;9.00;99.90;;;;;;5051347;28;20041;-55
2022/04/15 09:41:22;;;;;;;19.55;10.10;;;9.00;99.90;;;;;;5051529;28;20404;-54
2022/04/15 09:43:56;;;;;;;19.30;10.77;;;9.10;99.90;;;;;;5048877;28;20052;-55
2022/04/15 09:46:22;;;;;;;19.02;10.88;;;9.00;99.90;;;;;;5043204;28;20045;-55
2022/04/15 09:49:09;;;;;;;17.13;10.00;;;9.10;99.90;;;;;;5049076;28;20447;-55
2022/04/15 09:51:51;;;;;;;20.63;10.18;;;9.20;99.90;;;;;;5042923;28;20041;-54
2022/04/15 09:54:27;;;;;;;;;;;9.20;99.90;;;;;;5041185;28;20049;-55
2022/04/15 09:56:55;;;;;;;16.23;9.82;;;9.10;99.90;;;;;;5048890;28;19924;-55
2022/04/15 09:59:23;;;;;;;17.90;10.20;;;9.30;99.90;;;;;;5050302;28;20284;-55
2022/04/15 10:01:57;;;;;;;17.23;9.75;;;9.30;99.90;;;;;;5047259;28;20051;-55
2022/04/15 10:04:24;;;;;;;17.63;9.68;;;9.40;99.90;;;;;;5050141;28;20405;-55
2022/04/15 10:06:51;;;;;;;16.13;9.52;;;9.40;99.90;;;;;;5052896;28;20041;-55
2022/04/15 10:09:17;;;;;;;18.98;9.95;;;9.50;99.90;;;;;;5051041;28;20425;-55
2022/04/15 10:11:44;;;;;;;20.42;10.85;;;9.50;99.90;;;;;;5045810;28;20044;-55
2022/04/15 10:14:12;;;;;;;18.80;10.07;;;9.50;99.90;;;;;;5050668;28;20029;-55
2022/04/15 10:16:42;;;;;;;19.95;11.30;;;9.50;99.90;;;;;;5050177;28;20056;-55
2022/04/15 10:19:08;;;;;;;16.80;9.75;;;9.40;99.90;;;;;;5050536;28;20073;-55
2022/04/15 10:21:37;;;;;;;17.83;10.85;;;9.50;99.90;;;;;;5043193;28;20057;-55
2022/04/15 10:24:03;;;;;;;20.05;10.05;;;9.50;99.90;;;;;;5041102;28;20094;-52
2022/04/15 10:26:56;;;;;;;18.83;10.20;;;9.60;99.90;;;;;;5047984;28;20044;-52
2022/04/15 10:29:21;;;;;;;18.17;9.63;;;9.60;99.90;;;;;;5044662;28;20080;-52
2022/04/15 10:31:54;;;;;;;23.67;9.85;;;9.60;99.90;;;;;;5051307;28;20065;-52
2022/04/15 10:34:21;;;;;;;20.30;9.68;;;9.60;99.90;;;;;;5050047;28;20044;-53
2022/04/15 10:36:49;;;;;;;13.80;9.27;;;9.70;99.90;;;;;;5028580;28;20042;-52
2022/04/15 10:39:16;;;;;;;17.70;9.75;;;9.80;99.90;;;;;;5053144;28;20086;-52
2022/04/15 10:42:01;;;;;;;18.95;9.57;;;9.80;99.90;;;;;;5051738;28;20048;-54
2022/04/15 10:44:37;;;;;;;17.02;9.30;;;9.90;99.90;;;;;;5055342;28;20102;-54
2022/04/15 10:47:12;;;;;;;16.60;10.30;;;9.90;99.90;;;;;;5054726;28;20045;-54
2022/04/15 10:50:03;;;;;;;18.63;8.77;;;9.90;99.90;;;;;;5039621;28;20401;-54
2022/04/15 10:52:30;;;;;;;15.25;9.77;;;9.90;99.90;;;;;;5050267;28;20063;-54
2022/04/15 10:55:04;;;;;;;15.23;9.07;;;10.00;99.90;;;;;;5053462;28;20456;-54
2022/04/15 10:57:31;;;;;;;15.20;8.40;;;10.00;99.90;;;;;;5046018;28;20041;-55
2022/04/15 11:02:51;;;;;;;15.38;8.88;;;10.30;99.90;;;;;;5046685;28;20138;-55
2022/04/15 11:05:41;;;;;;;13.15;8.40;;;10.40;99.90;;;;;;5043423;28;20103;-54
2022/04/15 11:08:10;;;;;;;13.10;7.63;;;10.50;99.90;;;;;;5037251;28;20401;-53
2022/04/15 11:10:40;;;;;;;13.20;7.70;;;10.60;99.90;;;;;;5043709;28;20095;-55
2022/04/15 11:13:10;;;;;;;13.32;8.00;;;10.60;99.90;;;;;;5041348;28;20036;-55
2022/04/15 11:18:43;;;;;;;9.77;6.47;;;10.80;99.90;;;;;;5034856;28;20095;-54
2022/04/15 11:21:26;;;;;;;12.95;7.32;;;10.80;99.90;;;;;;5035078;28;20041;-55
2022/04/15 11:23:54;;;;;;;10.43;6.63;;;10.80;99.90;;;;;;5035707;28;20037;-55
2022/04/15 11:26:20;;;;;;;10.80;6.95;;;10.70;99.90;;;;;;5038153;28;20080;-55
2022/04/15 11:28:50;;;;;;;14.32;7.18;;;10.80;99.90;;;;;;5055661;28;20126;-55
2022/04/15 11:31:24;;;;;;;12.30;7.03;;;10.80;99.90;;;;;;5057281;28;20089;-56
2022/04/15 11:33:51;;;;;;;12.20;7.47;;;10.80;99.90;;;;;;5048443;28;20041;-56
2022/04/15 11:36:20;;;;;;;12.30;7.40;;;10.80;99.90;;;;;;5047066;28;20626;-56
2022/04/15 11:38:48;;;;;;;13.60;7.40;;;10.80;99.90;;;;;;5056565;28;20045;-56
2022/04/15 11:41:21;;;;;;;11.18;7.38;;;10.80;99.90;;;;;;5055797;28;20049;-55
2022/04/15 11:43:54;;;;;;;11.25;7.80;;;10.80;99.90;;;;;;5055107;28;20041;-56
2022/04/15 11:46:19;;;;;;;11.93;7.35;;;10.80;99.90;;;;;;5049408;28;20045;-56
2022/04/15 11:48:45;;;;;;;14.90;6.90;;;10.90;99.90;;;;;;5049936;28;20520;-56
2022/04/15 11:51:10;;;;;;;15.13;7.35;;;10.90;99.90;;;;;;5043481;28;20595;-55
2022/04/15 11:53:36;;;;;;;10.75;7.20;;;11.00;99.90;;;;;;5053270;28;20517;-56
2022/04/15 11:56:02;;;;;;;11.27;7.90;;;11.00;99.90;;;;;;5055640;28;20416;-55
2022/04/15 11:58:35;;;;;;;11.88;7.03;;;11.00;99.90;;;;;;5051745;28;20045;-56
2022/04/15 12:01:02;;;;;;;13.73;7.35;;;11.00;99.90;;;;;;5049908;28;20400;-56
2022/04/15 12:03:28;;;;;;;13.35;6.68;;;11.10;99.90;;;;;;5057995;28;20568;-55
2022/04/15 12:05:57;;;;;;;12.57;7.63;;;11.00;99.90;;;;;;5048151;28;20057;-55
2022/04/15 12:08:24;;;;;;;13.88;7.40;;;11.00;99.90;;;;;;5052095;28;20636;-56
2022/04/15 12:10:50;;;;;;;12.73;7.00;;;11.10;99.90;;;;;;5046019;28;20084;-56
2022/04/15 12:13:17;;;;;;;12.27;7.22;;;11.00;99.90;;;;;;5050666;28;20049;-55
2022/04/15 12:15:44;;;;;;;12.00;7.68;;;11.00;99.90;;;;;;5043258;28;20041;-54
2022/04/15 12:18:11;;;;;;;11.57;7.70;;;11.00;99.90;;;;;;5025084;28;20049;-55
2022/04/15 12:20:39;;;;;;;10.38;7.20;;;11.00;99.90;;;;;;5038206;28;20055;-55
2022/04/15 12:23:09;;;;;;;11.20;7.22;;;11.00;99.90;;;;;;5045672;28;20036;-55
2022/04/15 12:31:03;;;;;;;11.60;7.93;;;11.00;99.90;;;;;;5044608;28;20048;-55
2022/04/15 12:33:28;;;;;;;11.02;7.55;;;11.00;99.90;;;;;;5042525;28;20033;-55
2022/04/15 12:36:03;;;;;;;10.50;7.15;;;11.00;99.90;;;;;;5024408;28;20087;-55
2022/04/15 12:38:29;;;;;;;12.20;7.10;;;11.10;99.90;;;;;;5039829;28;20548;-55
2022/04/15 12:41:09;;;;;;;13.77;8.48;;;11.00;99.90;;;;;;5074414;22;20063;-51
2022/04/15 12:43:34;;;;;;;13.88;8.50;;;11.10;99.90;;;;;;5041601;28;20068;-48
2022/04/15 12:46:00;;;;;;;12.25;8.13;;;11.10;99.90;;;;;;5066879;28;20468;-49
2022/04/15 12:48:25;;;;;;;13.55;8.27;;;11.10;99.90;;;;;;5059252;28;20033;-51
2022/04/15 12:50:59;;;;;;;12.65;8.18;;;11.10;99.90;;;;;;5061210;28;20488;-49
2022/04/15 12:53:26;;;;;;;10.73;8.00;;;11.20;99.90;;;;;;5069250;28;20040;-49
2022/04/15 12:55:53;;;;;;;16.38;8.52;;;11.20;99.90;;;;;;5063494;28;20032;-52
2022/04/15 12:58:26;;;;;;;16.52;8.23;;;11.20;99.90;;;;;;5071720;28;20040;-49
2022/04/15 13:00:57;;;;;;;16.23;8.52;;;11.30;99.90;;;;;;5057815;28;20036;-52
2022/04/15 13:03:35;;;;;;;10.90;6.03;;;11.20;99.90;;;;;;5051003;28;20040;-48